createdAt,value
2019-04-05T00:00:09.412Z,33.74
2019-04-05T00:02:37.152Z,33.58
2019-04-05T00:05:04.848Z,33.55
2019-04-05T00:07:31.890Z,33.54
2019-04-05T00:09:58.923Z,33.40
2019-04-05T00:12:26.299Z,33.65
2019-04-05T00:14:53.848Z,33.49
2019-04-05T00:17:20.867Z,33.78
2019-04-05T00:19:48.656Z,33.93
2019-04-05T00:22:16.098Z,33.97
2019-04-05T00:24:43.272Z,33.92
2019-04-05T00:27:10.353Z,33.95
2019-04-05T00:29:37.685Z,34.00
2019-04-05T00:32:04.712Z,34.05
2019-04-05T00:34:32.947Z,34.05
2019-04-05T00:37:00.644Z,34.05
2019-04-05T00:39:27.678Z,34.06
2019-04-05T00:41:55.151Z,34.00
2019-04-05T00:44:22.327Z,33.75
2019-04-05T00:46:49.368Z,33.83
2019-04-05T00:49:16.619Z,33.61
2019-04-05T00:51:44.494Z,33.66
2019-04-05T00:54:11.528Z,33.34
2019-04-05T00:56:38.641Z,33.57
2019-04-05T00:59:05.701Z,33.45
2019-04-05T01:01:32.726Z,33.55
2019-04-05T01:04:00.173Z,33.91
2019-04-05T01:06:27.238Z,33.98
2019-04-05T01:08:54.283Z,34.06
2019-04-05T01:11:21.656Z,34.02
2019-04-05T01:13:49.427Z,34.05
2019-04-05T01:16:16.852Z,34.04
2019-04-05T01:18:44.398Z,33.91
2019-04-05T01:21:11.814Z,33.98
2019-04-05T01:23:39.217Z,33.90
2019-04-05T01:26:06.282Z,33.90
2019-04-05T01:28:33.493Z,33.86
2019-04-05T01:31:01.109Z,33.70
2019-04-05T01:33:28.530Z,33.69
2019-04-05T01:35:55.953Z,33.49
2019-04-05T01:38:24.086Z,33.47
2019-04-05T01:40:51.129Z,33.46
2019-04-05T01:43:18.130Z,33.46
2019-04-05T01:45:53.636Z,33.48
2019-04-05T01:48:15.084Z,33.48
2019-04-05T01:50:42.490Z,33.74
2019-04-05T01:53:09.530Z,33.75
2019-04-05T01:55:36.535Z,33.88
2019-04-05T01:58:03.551Z,33.84
2019-04-05T02:00:31.391Z,33.88
2019-04-05T02:02:58.418Z,33.86
2019-04-05T02:05:25.532Z,33.87
2019-04-05T02:07:52.587Z,33.85
2019-04-05T02:10:20.176Z,33.88
2019-04-05T02:12:47.183Z,33.93
2019-04-05T02:15:25.151Z,33.79
2019-04-05T02:17:52.492Z,33.70
2019-04-05T02:20:19.750Z,33.47
2019-04-05T02:22:47.406Z,33.30
2019-04-05T02:25:14.652Z,33.39
2019-04-05T02:27:41.659Z,33.46
2019-04-05T02:30:08.722Z,33.24
2019-04-05T02:32:36.786Z,33.62
2019-04-05T02:35:04.174Z,33.74
2019-04-05T02:37:32.351Z,33.83
2019-04-05T02:39:59.358Z,33.84
2019-04-05T02:42:26.382Z,33.86
2019-04-05T02:44:53.521Z,33.90
2019-04-05T02:47:20.550Z,33.92
2019-04-05T02:49:47.660Z,33.87
2019-04-05T02:52:15.353Z,33.84
2019-04-05T02:54:42.756Z,33.89
2019-04-05T02:57:09.854Z,33.98
2019-04-05T02:59:36.881Z,33.91
2019-04-05T03:02:04.159Z,33.66
2019-04-05T03:04:31.133Z,33.68
2019-04-05T03:06:58.226Z,33.71
2019-04-05T03:09:25.955Z,33.55
2019-04-05T03:11:53.770Z,33.47
2019-04-05T03:14:20.776Z,33.33
2019-04-05T03:16:47.813Z,33.34
2019-04-05T03:19:19.516Z,33.57
2019-04-05T03:21:50.596Z,33.70
2019-04-05T03:24:22.210Z,33.76
2019-04-05T03:26:55.465Z,33.70
2019-04-05T03:29:22.749Z,33.79
2019-04-05T03:31:50.426Z,33.81
2019-04-05T03:34:18.092Z,33.87
2019-04-05T03:36:45.114Z,33.92
2019-04-05T03:39:12.683Z,33.84
2019-04-05T03:41:39.691Z,33.63
2019-04-05T03:44:07.902Z,33.49
2019-04-05T03:46:34.959Z,33.40
2019-04-05T03:49:02.801Z,33.44
2019-04-05T03:51:30.006Z,33.54
2019-04-05T03:53:57.310Z,33.41
2019-04-05T03:56:25.220Z,33.37
2019-04-05T03:58:52.383Z,33.33
2019-04-05T04:01:19.503Z,33.54
2019-04-05T04:03:46.938Z,33.68
2019-04-05T04:06:14.529Z,33.76
2019-04-05T04:08:41.790Z,33.74
2019-04-05T04:11:09.531Z,33.76
2019-04-05T04:13:36.881Z,33.78
2019-04-05T04:16:03.917Z,33.78
2019-04-05T04:18:31.284Z,33.77
2019-04-05T04:21:02.330Z,33.82
2019-04-05T04:23:29.659Z,33.85
2019-04-05T04:25:56.710Z,33.72
2019-04-05T04:28:23.762Z,33.60
2019-04-05T04:30:51.185Z,33.63
2019-04-05T04:33:18.737Z,33.50
2019-04-05T04:35:47.057Z,33.49
2019-04-05T04:38:14.215Z,33.41
2019-04-05T04:40:41.789Z,33.42
2019-04-05T04:43:09.287Z,33.40
2019-04-05T04:45:36.499Z,33.62
2019-04-05T04:48:03.693Z,33.81
2019-04-05T04:50:30.802Z,33.81
2019-04-05T04:52:57.912Z,33.78
2019-04-05T04:55:24.954Z,33.90
2019-04-05T04:57:52.012Z,33.88
2019-04-05T05:00:19.092Z,33.89
2019-04-05T05:02:46.392Z,33.83
2019-04-05T05:05:13.450Z,33.86
2019-04-05T05:07:41.306Z,33.96
2019-04-05T05:10:08.367Z,33.96
2019-04-05T05:12:35.814Z,33.88
2019-04-05T05:15:03.642Z,33.75
2019-04-05T05:17:38.489Z,33.74
2019-04-05T05:20:00.271Z,33.64
2019-04-05T05:22:27.436Z,33.58
2019-04-05T05:24:54.475Z,33.57
2019-04-05T05:27:22.422Z,33.44
2019-04-05T05:29:49.841Z,33.70
2019-04-05T05:32:16.875Z,34.00
2019-04-05T05:34:43.969Z,33.96
2019-04-05T05:37:11.708Z,33.92
2019-04-05T05:39:38.733Z,33.90
2019-04-05T05:42:06.213Z,33.87
2019-04-05T05:44:33.271Z,34.32
2019-04-05T05:47:00.387Z,34.16
2019-04-05T05:49:28.055Z,33.57
2019-04-05T05:51:55.133Z,33.04
2019-04-05T05:54:22.170Z,32.98
2019-04-05T05:56:49.817Z,33.13
2019-04-05T05:59:16.913Z,33.10
2019-04-05T06:01:43.982Z,32.99
2019-04-05T06:04:12.924Z,32.86
2019-04-05T06:06:40.908Z,32.80
2019-04-05T06:09:07.921Z,32.60
2019-04-05T06:11:35.068Z,32.59
2019-04-05T06:14:03.140Z,32.75
2019-04-05T06:16:30.690Z,32.62
2019-04-05T06:18:57.701Z,32.93
2019-04-05T06:21:26.639Z,33.08
2019-04-05T06:23:53.903Z,33.08
2019-04-05T06:26:20.926Z,33.08
2019-04-05T06:28:48.021Z,33.11
2019-04-05T06:31:15.202Z,33.05
2019-04-05T06:33:42.243Z,33.05
2019-04-05T06:36:09.329Z,33.04
2019-04-05T06:38:36.353Z,32.99
2019-04-05T06:41:03.374Z,33.00
2019-04-05T06:43:30.536Z,33.07
2019-04-05T06:45:57.629Z,32.99
2019-04-05T06:48:24.824Z,32.78
2019-04-05T06:50:52.123Z,32.74
2019-04-05T06:53:19.250Z,32.62
2019-04-05T06:55:46.324Z,32.67
2019-04-05T06:58:19.865Z,32.62
2019-04-05T07:00:56.119Z,32.70
2019-04-05T07:03:13.660Z,32.60
2019-04-05T07:05:40.541Z,32.85
2019-04-05T07:08:07.562Z,32.91
2019-04-05T07:10:34.890Z,32.99
2019-04-05T07:13:02.046Z,33.03
2019-04-05T07:15:30.007Z,33.05
2019-04-05T07:17:57.052Z,33.03
2019-04-05T07:20:24.094Z,33.08
2019-04-05T07:22:51.258Z,33.16
2019-04-05T07:25:18.292Z,33.17
2019-04-05T07:27:46.213Z,33.15
2019-04-05T07:30:13.480Z,33.18
2019-04-05T07:32:41.042Z,33.10
2019-04-05T07:35:08.884Z,32.82
2019-04-05T07:37:36.228Z,32.80
2019-04-05T07:40:04.436Z,32.64
2019-04-05T07:42:32.642Z,32.69
2019-04-05T07:45:00.243Z,32.74
2019-04-05T07:47:27.911Z,32.54
2019-04-05T07:49:56.247Z,32.54
2019-04-05T07:52:24.659Z,32.68
2019-04-05T07:54:52.157Z,32.76
2019-04-05T07:57:19.344Z,32.66
2019-04-05T07:59:46.349Z,32.70
2019-04-05T08:02:13.357Z,32.65
2019-04-05T08:04:40.369Z,32.64
2019-04-05T08:07:07.366Z,32.64
2019-04-05T08:09:35.554Z,32.63
2019-04-05T08:12:02.872Z,32.67
2019-04-05T08:14:29.887Z,32.63
2019-04-05T08:16:57.020Z,32.53
2019-04-05T08:19:24.145Z,32.37
2019-04-05T08:21:51.421Z,32.30
2019-04-05T08:24:18.687Z,32.42
2019-04-05T08:26:45.783Z,32.33
2019-04-05T08:29:13.124Z,32.25
2019-04-05T08:31:40.128Z,32.34
2019-04-05T08:34:07.150Z,32.48
2019-04-05T08:36:34.226Z,32.40
2019-04-05T08:39:01.552Z,32.63
2019-04-05T08:41:28.681Z,32.63
2019-04-05T08:43:55.771Z,32.64
2019-04-05T08:46:23.526Z,32.61
2019-04-05T08:48:52.304Z,32.62
2019-04-05T08:51:19.908Z,32.62
2019-04-05T08:53:48.304Z,32.62
2019-04-05T08:56:15.964Z,32.56
2019-04-05T08:58:44.030Z,32.61
2019-04-05T09:01:11.407Z,32.65
2019-04-05T09:03:39.092Z,32.44
2019-04-05T09:06:06.096Z,32.35
2019-04-05T09:08:33.444Z,32.33
2019-04-05T09:11:00.495Z,32.26
2019-04-05T09:13:27.522Z,32.08
2019-04-05T09:15:54.976Z,32.04
2019-04-05T09:18:22.046Z,31.81
2019-04-05T09:20:49.078Z,31.83
2019-04-05T09:23:16.088Z,32.01
2019-04-05T09:25:43.691Z,31.96
2019-04-05T09:28:10.701Z,31.89
2019-04-05T09:30:37.827Z,31.85
2019-04-05T09:33:04.942Z,31.82
2019-04-05T09:35:32.292Z,31.72
2019-04-05T09:37:59.642Z,31.73
2019-04-05T09:40:27.007Z,31.66
2019-04-05T09:42:54.385Z,31.82
2019-04-05T09:45:22.223Z,31.83
2019-04-05T09:47:49.847Z,31.78
2019-04-05T09:50:17.237Z,31.67
2019-04-05T09:52:44.668Z,31.51
2019-04-05T09:55:11.818Z,31.43
2019-04-05T09:57:39.603Z,31.54
2019-04-05T10:00:10.891Z,31.25
2019-04-05T10:02:38.198Z,31.61
2019-04-05T10:05:05.767Z,31.45
2019-04-05T10:07:33.115Z,31.11
2019-04-05T10:10:01.108Z,31.54
2019-04-05T10:12:28.162Z,31.50
2019-04-05T10:14:55.199Z,31.43
2019-04-05T10:17:22.253Z,31.30
2019-04-05T10:19:50.536Z,31.23
2019-04-05T10:22:17.857Z,31.29
2019-04-05T10:24:44.903Z,31.20
2019-04-05T10:27:12.288Z,31.16
2019-04-05T10:29:39.849Z,31.24
2019-04-05T10:32:06.884Z,31.13
2019-04-05T10:34:34.311Z,31.07
2019-04-05T10:37:01.641Z,31.14
2019-04-05T10:39:28.944Z,30.82
2019-04-05T10:42:03.352Z,30.75
2019-04-05T10:44:26.801Z,30.82
2019-04-05T10:46:54.102Z,30.80
2019-04-05T10:49:21.712Z,30.86
2019-04-05T10:51:48.759Z,30.91
2019-04-05T10:54:15.801Z,30.83
2019-04-05T10:56:43.324Z,30.85
2019-04-05T10:59:10.358Z,30.91
2019-04-05T11:01:37.620Z,31.05
2019-04-05T11:04:05.037Z,31.09
2019-04-05T11:06:32.367Z,31.15
2019-04-05T11:08:59.830Z,31.03
2019-04-05T11:11:27.282Z,31.02
2019-04-05T11:13:54.637Z,31.02
2019-04-05T11:16:22.913Z,30.99
2019-04-05T11:18:50.504Z,31.03
2019-04-05T11:21:19.018Z,31.01
2019-04-05T11:23:46.580Z,31.18
2019-04-05T11:26:13.568Z,30.78
2019-04-05T11:28:40.627Z,31.06
2019-04-05T11:31:08.159Z,30.99
2019-04-05T11:33:35.548Z,31.42
2019-04-05T11:36:03.282Z,31.37
2019-04-05T11:38:31.045Z,31.34
2019-04-05T11:40:58.391Z,31.30
2019-04-05T11:43:26.914Z,31.64
2019-04-05T11:45:55.296Z,31.74
2019-04-05T11:48:22.910Z,31.87
2019-04-05T11:50:50.652Z,31.90
2019-04-05T11:53:17.693Z,32.02
2019-04-05T11:55:46.602Z,32.14
2019-04-05T11:58:14.046Z,32.19
2019-04-05T12:00:47.412Z,32.22
2019-04-05T12:03:14.519Z,32.21
2019-04-05T12:05:42.146Z,32.12
2019-04-05T12:08:10.149Z,32.15
2019-04-05T12:10:37.185Z,32.18
2019-04-05T12:13:04.324Z,31.90
2019-04-05T12:15:33.547Z,31.81
2019-04-05T12:18:04.215Z,32.03
2019-04-05T12:20:30.742Z,31.56
2019-04-05T12:22:59.531Z,32.08
2019-04-05T12:25:26.888Z,32.22
2019-04-05T12:28:05.573Z,32.35
2019-04-05T12:30:24.592Z,32.39
2019-04-05T12:32:51.712Z,32.31
2019-04-05T12:35:21.309Z,32.39
2019-04-05T12:37:50.458Z,32.41
2019-04-05T12:40:18.032Z,32.39
2019-04-05T12:42:46.608Z,32.32
2019-04-05T12:45:15.461Z,32.25
2019-04-05T12:47:45.390Z,32.11
2019-04-05T12:50:14.120Z,32.06
2019-04-05T12:52:41.250Z,31.87
2019-04-05T12:55:08.325Z,31.73
2019-04-05T12:57:35.646Z,32.20
2019-04-05T13:00:04.030Z,31.98
2019-04-05T13:02:33.829Z,31.75
2019-04-05T13:05:01.303Z,32.19
2019-04-05T13:07:28.867Z,32.21
2019-04-05T13:09:56.520Z,32.08
2019-04-05T13:12:26.155Z,32.12
2019-04-05T13:14:56.714Z,32.12
2019-04-05T13:17:22.391Z,32.11
2019-04-05T13:19:49.430Z,32.08
2019-04-05T13:22:16.889Z,32.13
2019-04-05T13:24:44.319Z,32.14
2019-04-05T13:27:11.829Z,32.20
2019-04-05T13:29:39.846Z,32.23
2019-04-05T13:32:07.238Z,32.28
2019-04-05T13:34:34.273Z,32.43
2019-04-05T13:37:01.949Z,32.14
2019-04-05T13:39:29.774Z,32.14
2019-04-05T13:42:01.299Z,32.24
2019-04-05T13:44:31.577Z,32.27
2019-04-05T13:46:56.616Z,32.45
2019-04-05T13:49:24.170Z,32.70
2019-04-05T13:51:51.816Z,32.84
2019-04-05T13:54:18.871Z,32.85
2019-04-05T13:56:45.912Z,32.82
2019-04-05T13:59:12.945Z,32.79
2019-04-05T14:01:41.110Z,32.90
2019-04-05T14:04:08.430Z,32.87
2019-04-05T14:06:35.458Z,32.91
2019-04-05T14:09:03.580Z,33.03
2019-04-05T14:11:30.607Z,33.04
2019-04-05T14:13:58.302Z,32.96
2019-04-05T14:16:25.464Z,32.87
2019-04-05T14:18:52.863Z,32.87
2019-04-05T14:21:22.274Z,32.75
2019-04-05T14:23:49.015Z,33.00
2019-04-05T14:26:16.991Z,33.31
2019-04-05T14:28:44.631Z,33.29
2019-04-05T14:31:12.401Z,33.41
2019-04-05T14:33:40.494Z,33.65
2019-04-05T14:36:08.019Z,33.74
2019-04-05T14:38:35.683Z,33.53
2019-04-05T14:41:03.142Z,33.23
2019-04-05T14:43:30.717Z,33.10
2019-04-05T14:45:58.360Z,33.29
2019-04-05T14:48:28.096Z,33.31
2019-04-05T14:50:57.921Z,33.47
2019-04-05T14:53:24.903Z,33.54
2019-04-05T14:55:52.071Z,33.25
2019-04-05T14:58:19.528Z,32.88
2019-04-05T15:00:48.409Z,32.47
2019-04-05T15:03:16.750Z,32.66
2019-04-05T15:05:44.447Z,32.44
2019-04-05T15:08:11.712Z,32.63
2019-04-05T15:10:39.154Z,32.48
2019-04-05T15:13:06.370Z,32.61
2019-04-05T15:15:33.487Z,32.68
2019-04-05T15:18:00.548Z,32.81
2019-04-05T15:20:27.965Z,32.89
2019-04-05T15:22:55.810Z,32.99
2019-04-05T15:25:23.292Z,33.10
2019-04-05T15:27:55.258Z,32.99
2019-04-05T15:30:20.969Z,32.97
2019-04-05T15:32:51.244Z,33.41
2019-04-05T15:35:17.474Z,33.67
2019-04-05T15:37:51.092Z,33.96
2019-04-05T15:40:18.885Z,33.67
2019-04-05T15:42:46.665Z,33.29
2019-04-05T15:45:16.070Z,33.13
2019-04-05T15:47:43.914Z,33.12
2019-04-05T15:50:11.153Z,33.02
2019-04-05T15:52:38.162Z,32.78
2019-04-05T15:55:05.628Z,33.05
2019-04-05T15:57:34.286Z,32.81
2019-04-05T16:00:03.843Z,33.02
2019-04-05T16:02:33.014Z,33.08
2019-04-05T16:04:59.321Z,33.17
2019-04-05T16:07:26.519Z,33.15
2019-04-05T16:09:53.667Z,33.28
2019-04-05T16:12:21.348Z,33.26
2019-04-05T16:14:48.678Z,33.26
2019-04-05T16:17:16.356Z,33.25
2019-04-05T16:19:43.542Z,33.27
2019-04-05T16:22:10.863Z,33.39
2019-04-05T16:24:39.134Z,33.31
2019-04-05T16:27:06.172Z,33.16
2019-04-05T16:29:33.237Z,33.14
2019-04-05T16:32:00.243Z,33.17
2019-04-05T16:34:27.265Z,33.08
2019-04-05T16:36:54.275Z,33.00
2019-04-05T16:39:21.648Z,32.99
2019-04-05T16:41:49.586Z,33.00
2019-04-05T16:44:17.251Z,33.10
2019-04-05T16:46:44.395Z,33.33
2019-04-05T16:49:12.013Z,33.49
2019-04-05T16:51:39.306Z,33.46
2019-04-05T16:54:06.331Z,33.49
2019-04-05T16:56:34.024Z,33.56
2019-04-05T16:59:01.391Z,33.59
2019-04-05T17:01:30.930Z,33.62
2019-04-05T17:03:57.985Z,33.61
2019-04-05T17:06:25.274Z,33.71
2019-04-05T17:08:52.760Z,33.69
2019-04-05T17:11:19.799Z,33.65
2019-04-05T17:13:47.087Z,33.46
2019-04-05T17:16:14.790Z,32.88
2019-04-05T17:18:41.815Z,32.45
2019-04-05T17:21:08.927Z,32.09
2019-04-05T17:23:36.180Z,32.50
2019-04-05T17:26:04.030Z,33.63
2019-04-05T17:28:31.870Z,33.89
2019-04-05T17:31:00.606Z,34.31
2019-04-05T17:33:27.905Z,34.32
2019-04-05T17:35:55.590Z,34.39
2019-04-05T17:38:22.714Z,34.31
2019-04-05T17:40:49.733Z,34.43
2019-04-05T17:43:17.663Z,34.25
2019-04-05T17:45:44.977Z,34.29
2019-04-05T17:48:12.182Z,34.49
2019-04-05T17:50:39.789Z,34.28
2019-04-05T17:53:12.841Z,34.48
2019-04-05T17:55:36.199Z,34.24
2019-04-05T17:58:04.623Z,34.17
2019-04-05T18:00:31.910Z,34.93
2019-04-05T18:02:59.438Z,34.00
2019-04-05T18:05:26.504Z,33.62
2019-04-05T18:07:53.643Z,33.55
2019-04-05T18:10:20.955Z,33.47
2019-04-05T18:12:48.651Z,33.18
2019-04-05T18:15:15.672Z,33.24
2019-04-05T18:17:43.758Z,33.30
2019-04-05T18:20:11.323Z,33.15
2019-04-05T18:22:38.473Z,33.83
2019-04-05T18:25:05.792Z,33.88
2019-04-05T18:27:33.074Z,33.73
2019-04-05T18:30:00.433Z,33.88
2019-04-05T18:32:27.486Z,34.16
2019-04-05T18:34:54.606Z,33.75
2019-04-05T18:37:22.034Z,33.57
2019-04-05T18:39:49.793Z,33.47
2019-04-05T18:42:16.853Z,33.80
2019-04-05T18:44:44.546Z,34.04
2019-04-05T18:47:11.687Z,33.92
2019-04-05T18:49:38.822Z,33.59
2019-04-05T18:52:06.198Z,33.18
2019-04-05T18:54:33.189Z,33.09
2019-04-05T18:57:00.801Z,33.11
2019-04-05T18:59:28.202Z,33.04
2019-04-05T19:01:56.026Z,33.17
2019-04-05T19:04:23.064Z,33.33
2019-04-05T19:06:50.627Z,33.38
2019-04-05T19:09:18.412Z,33.47
2019-04-05T19:11:45.807Z,34.37
2019-04-05T19:14:13.234Z,33.94
2019-04-05T19:16:40.963Z,33.75
2019-04-05T19:19:10.368Z,33.58
2019-04-05T19:21:38.339Z,33.51
2019-04-05T19:24:07.937Z,33.56
2019-04-05T19:26:37.550Z,33.62
2019-04-05T19:29:04.919Z,33.46
2019-04-05T19:49:03.297Z,33.61
2019-04-05T19:51:30.625Z,33.67
2019-04-05T19:54:01.481Z,33.65
2019-04-05T19:56:30.055Z,33.66
2019-04-05T19:58:57.301Z,33.75
2019-04-05T20:01:25.499Z,33.76
2019-04-05T20:03:52.555Z,33.77
2019-04-05T20:06:19.641Z,33.67
2019-04-05T20:08:46.705Z,33.57
2019-04-05T20:11:13.710Z,33.51
2019-04-05T20:13:42.905Z,33.51
2019-04-05T20:16:09.816Z,33.50
2019-04-05T20:18:37.992Z,33.56
2019-04-05T20:21:05.769Z,33.49
2019-04-05T20:23:33.698Z,33.51
2019-04-05T20:26:01.338Z,33.71
2019-04-05T20:28:28.973Z,33.79
2019-04-05T20:30:56.115Z,34.36
2019-04-05T20:33:23.485Z,34.42
2019-04-05T20:35:50.898Z,34.72
2019-04-05T20:38:17.936Z,34.57
2019-04-05T20:40:45.299Z,34.20
2019-04-05T20:43:12.707Z,34.21
2019-04-05T20:45:40.058Z,33.95
2019-04-05T20:48:08.073Z,33.99
2019-04-05T20:50:35.181Z,34.08
2019-04-05T20:53:02.797Z,34.06
2019-04-05T20:55:30.759Z,33.92
2019-04-05T20:57:58.065Z,33.83
2019-04-05T21:00:25.094Z,33.68
2019-04-05T21:02:52.227Z,33.74
2019-04-05T21:05:25.246Z,33.70
2019-04-05T21:07:49.261Z,33.69
2019-04-05T21:10:16.661Z,33.87
2019-04-05T21:12:44.183Z,33.95
2019-04-05T21:15:11.528Z,33.97
2019-04-05T21:17:39.013Z,34.02
2019-04-05T21:20:06.063Z,34.02
2019-04-05T21:22:33.516Z,34.07
2019-04-05T21:25:00.943Z,34.08
2019-04-05T21:27:28.467Z,34.14
2019-04-05T21:29:55.749Z,34.12
2019-04-05T21:32:23.719Z,34.21
2019-04-05T21:34:51.941Z,34.32
2019-04-05T21:37:19.864Z,34.32
2019-04-05T21:39:46.916Z,34.57
2019-04-05T21:42:14.353Z,34.33
2019-04-05T21:44:42.188Z,34.32
2019-04-05T21:47:09.515Z,34.13
2019-04-05T21:49:36.566Z,34.28
2019-04-05T21:52:04.209Z,34.01
2019-04-05T21:54:31.631Z,33.98
2019-04-05T21:56:59.919Z,34.38
2019-04-05T21:59:27.595Z,34.52
2019-04-05T22:01:54.937Z,34.57
2019-04-05T22:04:22.196Z,34.57
2019-04-05T22:06:50.675Z,34.56
2019-04-05T22:09:19.721Z,34.64
2019-04-05T22:11:47.695Z,34.71
2019-04-05T22:14:15.890Z,34.70
2019-04-05T22:16:45.100Z,34.77
2019-04-05T22:19:13.478Z,34.86
2019-04-05T22:21:41.637Z,34.70
2019-04-05T22:24:10.241Z,34.67
2019-04-05T22:26:37.487Z,34.62
2019-04-05T22:29:05.041Z,34.60
2019-04-05T22:31:33.110Z,34.52
2019-04-05T22:34:01.059Z,34.28
2019-04-05T22:36:29.462Z,34.31
2019-04-05T22:38:58.206Z,34.65
2019-04-05T22:41:26.966Z,34.77
2019-04-05T22:43:56.027Z,34.76
2019-04-05T22:46:24.507Z,34.85
2019-04-05T22:48:52.408Z,34.81
2019-04-05T22:51:21.161Z,34.81
2019-04-05T22:53:49.287Z,34.84
2019-04-05T22:56:17.505Z,34.90
2019-04-05T22:58:45.680Z,34.93
2019-04-05T23:01:12.810Z,34.96
2019-04-05T23:03:40.389Z,34.95
2019-04-05T23:06:07.714Z,34.79
2019-04-05T23:08:34.961Z,34.83
2019-04-05T23:11:02.408Z,34.61
2019-04-05T23:13:30.202Z,34.46
2019-04-05T23:15:57.580Z,34.68
2019-04-05T23:18:25.169Z,34.18
2019-04-05T23:20:53.709Z,34.59
2019-04-05T23:23:20.792Z,34.77
2019-04-05T23:25:48.531Z,34.80
2019-04-05T23:28:15.551Z,34.78
2019-04-05T23:30:42.915Z,34.88
2019-04-05T23:33:10.274Z,34.96
2019-04-05T23:35:37.332Z,34.93
2019-04-05T23:38:05.882Z,34.95
2019-04-05T23:40:33.254Z,34.82
2019-04-05T23:43:00.287Z,35.03
2019-04-05T23:45:27.547Z,35.04
2019-04-05T23:47:54.804Z,35.05
2019-04-05T23:50:21.835Z,34.86
2019-04-05T23:52:49.358Z,34.80
2019-04-05T23:55:16.661Z,34.77
2019-04-05T23:57:44.025Z,34.64
